Time;durP1;ratioP1;P1;durP2;ratioP2;P2;SDS_P1;SDS_P2;PMS_P1;PMS_P2;Temp;Humidity;BMP_temperature;BMP_pressure;BME280_temperature;BME280_humidity;BME280_pressure;Samples;Min_cycle;Max_cycle;Signal;HPM_P1;HPM_P2
2024/03/29 00:00:35;;;;;;;6.05;2.20;;;;;;;6.17;96.47;97844.84;5086444;28;20126;-68
2024/03/29 00:03:01;;;;;;;1.67;1.58;;;;;;;6.17;96.32;97849.16;5086505;28;20048;-68
2024/03/29 00:05:26;;;;;;;2.67;2.30;;;;;;;6.18;96.45;97846.53;5086386;28;20025;-69
2024/03/29 00:07:51;;;;;;;4.82;2.47;;;;;;;6.24;96.39;97839.50;5086173;28;20064;-69
2024/03/29 00:10:17;;;;;;;1.42;0.98;;;;;;;6.18;96.65;97848.28;5086310;28;20094;-68
2024/03/29 00:12:42;;;;;;;11.65;2.60;;;;;;;6.21;96.38;97850.75;5086366;28;20035;-69
2024/03/29 00:15:07;;;;;;;1.23;1.13;;;;;;;6.18;96.36;97849.09;5084758;28;20380;-68
2024/03/29 00:17:33;;;;;;;0.85;0.85;;;;;;;6.10;96.36;97845.94;5086262;28;20019;-70
2024/03/29 00:19:58;;;;;;;4.25;2.42;;;;;;;6.15;96.27;97853.53;5086300;28;20096;-68
2024/03/29 00:22:23;;;;;;;2.08;1.45;;;;;;;6.17;96.51;97860.31;5084823;28;20036;-68
2024/03/29 00:24:49;;;;;;;2.38;1.67;;;;;;;6.16;96.29;97868.94;5085660;28;20084;-66
2024/03/29 00:27:14;;;;;;;4.55;2.97;;;;;;;6.16;96.38;97862.94;5085746;28;20029;-67
2024/03/29 00:29:39;;;;;;;3.45;2.10;;;;;;;6.17;96.46;97870.63;5085777;28;20036;-69
2024/03/29 00:32:05;;;;;;;1.20;1.10;;;;;;;6.14;96.35;97867.28;5085767;28;20017;-67
2024/03/29 00:34:31;;;;;;;3.75;2.08;;;;;;;6.15;96.43;97874.16;5085761;28;20464;-68
2024/03/29 00:36:56;;;;;;;0.80;0.80;;;;;;;6.11;96.53;97865.66;5085686;28;20023;-68
2024/03/29 00:39:22;;;;;;;4.28;0.90;;;;;;;6.11;96.43;97875.97;5085742;28;20063;-67
2024/03/29 00:41:47;;;;;;;3.38;2.67;;;;;;;6.16;96.16;97884.41;5085579;28;20020;-67
2024/03/29 00:44:13;;;;;;;2.15;1.33;;;;;;;6.17;96.68;97892.94;5085745;28;20033;-68
2024/03/29 00:46:38;;;;;;;2.60;1.30;;;;;;;6.14;96.44;97888.75;5085503;28;20084;-68
2024/03/29 00:49:03;;;;;;;2.13;1.73;;;;;;;6.18;96.55;97886.94;5085599;28;20081;-68
2024/03/29 00:51:29;;;;;;;3.72;1.52;;;;;;;6.07;96.53;97872.63;5083949;28;20032;-68
2024/03/29 00:53:54;;;;;;;1.40;0.95;;;;;;;6.17;96.59;97901.53;5084183;28;20074;-67
2024/03/29 00:56:20;;;;;;;4.63;3.15;;;;;;;6.23;96.47;97895.34;5085067;28;20027;-67
2024/03/29 00:58:46;;;;;;;4.25;3.20;;;;;;;6.21;96.53;97902.28;5085394;28;20048;-68
2024/03/29 01:01:11;;;;;;;5.13;3.75;;;;;;;6.27;96.31;97906.41;5085259;28;20031;-69
2024/03/29 01:03:36;;;;;;;5.15;3.08;;;;;;;6.30;96.46;97908.88;5085337;28;20031;-68
2024/03/29 01:06:02;;;;;;;4.97;3.78;;;;;;;6.29;96.43;97912.34;5085077;28;20055;-67
2024/03/29 01:08:27;;;;;;;4.90;3.22;;;;;;;6.28;96.35;97911.50;5084903;28;20464;-68
2024/03/29 01:10:53;;;;;;;5.38;3.92;;;;;;;6.29;96.37;97910.59;5084977;28;20107;-69
2024/03/29 01:13:19;;;;;;;1.85;1.73;;;;;;;6.30;96.17;97912.31;5085110;28;20024;-69
2024/03/29 01:15:44;;;;;;;4.05;2.22;;;;;;;6.30;96.28;97914.03;5085007;28;20095;-70
2024/03/29 01:18:10;;;;;;;4.00;3.20;;;;;;;6.31;96.27;97923.47;5085023;28;20483;-67
2024/03/29 01:20:36;;;;;;;10.65;2.65;;;;;;;6.33;96.16;97931.97;5085058;28;20044;-68
2024/03/29 01:23:01;;;;;;;3.38;2.30;;;;;;;6.33;96.46;97929.41;5084997;28;20078;-68
2024/03/29 01:25:27;;;;;;;3.00;2.03;;;;;;;6.27;96.30;97925.28;5084772;28;20027;-68
2024/03/29 01:27:53;;;;;;;6.15;3.50;;;;;;;6.31;96.29;97929.44;5084865;28;20035;-68
2024/03/29 01:30:18;;;;;;;3.30;3.00;;;;;;;6.26;96.19;97925.34;5085074;28;20032;-68
2024/03/29 01:32:44;;;;;;;6.93;3.65;;;;;;;6.29;96.13;97925.25;5084675;28;20028;-68
2024/03/29 01:35:09;;;;;;;7.93;2.95;;;;;;;6.20;96.61;97937.50;5084708;28;20031;-68
2024/03/29 01:37:34;;;;;;;1.40;1.33;;;;;;;6.33;96.47;97947.44;5084940;28;20028;-68
2024/03/29 01:40:00;;;;;;;1.80;1.67;;;;;;;6.29;96.45;97951.00;5084122;28;20021;-67
2024/03/29 01:42:25;;;;;;;2.80;2.60;;;;;;;6.27;96.14;97960.50;5085105;28;20021;-68
2024/03/29 01:44:50;;;;;;;0.73;0.73;;;;;;;6.23;96.55;97946.03;5085262;28;20017;-67
2024/03/29 01:47:18;;;;;;;3.67;3.35;;;;;;;6.26;96.24;97957.06;5084802;28;20056;-68
2024/03/29 01:49:45;;;;;;;6.93;1.75;;;;;;;6.27;96.52;97957.94;5084902;28;20024;-68
2024/03/29 01:52:12;;;;;;;4.90;3.38;;;;;;;6.28;96.53;97965.63;5084946;28;20188;-68
2024/03/29 01:54:37;;;;;;;3.30;2.58;;;;;;;6.28;96.47;97954.44;5084817;28;20036;-69
2024/03/29 01:57:03;;;;;;;4.60;2.03;;;;;;;6.23;96.58;97969.22;5084506;28;20024;-69
2024/03/29 01:59:29;;;;;;;1.10;1.08;;;;;;;6.16;96.77;97966.84;5084801;28;20088;-68
2024/03/29 02:01:54;;;;;;;3.53;2.38;;;;;;;6.19;96.92;97956.44;5084669;28;20025;-68
2024/03/29 02:04:20;;;;;;;9.98;4.15;;;;;;;6.19;97.13;97963.31;5084623;28;20078;-68
2024/03/29 02:06:46;;;;;;;5.95;3.80;;;;;;;6.25;97.06;97964.84;5084178;28;20025;-66
2024/03/29 02:09:12;;;;;;;5.60;3.47;;;;;;;6.20;97.17;97965.00;5084658;28;20044;-68
2024/03/29 02:11:37;;;;;;;4.90;2.83;;;;;;;6.19;97.34;97969.31;5084366;28;20031;-69
2024/03/29 02:14:05;;;;;;;7.95;2.72;;;;;;;6.18;97.24;97965.03;5084662;28;20384;-68
2024/03/29 02:16:31;;;;;;;0.80;0.80;;;;;;;6.18;97.24;97972.78;5084445;28;20013;-69
2024/03/29 02:18:56;;;;;;;7.90;1.92;;;;;;;6.18;97.18;97990.81;5084451;28;20052;-68
2024/03/29 02:21:21;;;;;;;3.22;1.98;;;;;;;6.13;97.01;97992.69;5084443;28;20032;-69
2024/03/29 02:23:50;;;;;;;3.85;3.47;;;;;;;6.11;97.12;97993.59;5084432;28;20066;-68
2024/03/29 02:26:16;;;;;;;13.30;2.95;;;;;;;6.05;96.94;97998.03;5084095;28;20025;-68
2024/03/29 02:28:41;;;;;;;6.63;3.65;;;;;;;6.00;97.01;97999.03;5084521;28;20087;-67
2024/03/29 02:31:08;;;;;;;3.65;2.33;;;;;;;5.98;97.04;98000.81;5084210;28;20063;-67
2024/03/29 02:33:33;;;;;;;4.18;3.13;;;;;;;5.95;96.94;98012.91;5084351;28;20092;-68
2024/03/29 02:35:58;;;;;;;2.03;1.85;;;;;;;5.89;96.71;97999.34;5084268;28;20031;-68
2024/03/29 02:38:24;;;;;;;3.95;1.92;;;;;;;5.90;96.99;98014.75;5084317;28;20025;-69
2024/03/29 02:40:49;;;;;;;3.55;2.60;;;;;;;5.90;96.95;98017.34;5084066;28;20051;-68
2024/03/29 02:43:14;;;;;;;1.95;1.77;;;;;;;5.85;97.05;98020.94;5084225;28;20020;-68
2024/03/29 02:45:40;;;;;;;2.53;2.13;;;;;;;5.83;96.89;98023.56;5084519;28;20421;-68
2024/03/29 02:48:05;;;;;;;3.50;1.90;;;;;;;5.80;96.89;98027.03;5084334;28;20028;-68
2024/03/29 02:50:31;;;;;;;1.88;1.25;;;;;;;5.75;96.81;98030.63;5084567;28;20100;-69
2024/03/29 02:52:56;;;;;;;9.15;4.68;;;;;;;5.69;96.68;98026.47;5087226;28;20021;-68
2024/03/29 02:55:22;;;;;;;2.47;2.28;;;;;;;5.67;96.82;98034.25;5087625;28;20764;-69
2024/03/29 02:57:47;;;;;;;5.55;2.78;;;;;;;5.66;97.06;98042.00;5087633;28;20025;-68
2024/03/29 03:00:13;;;;;;;1.30;0.70;;;;;;;5.58;96.74;98034.50;5087525;28;20472;-68
2024/03/29 03:02:39;;;;;;;0.57;0.57;;;;;;;5.55;96.88;98038.00;5087354;28;20021;-68
2024/03/29 03:05:06;;;;;;;1.85;1.35;;;;;;;5.53;96.62;98038.91;5087581;28;20028;-68
2024/03/29 03:12:59;;;;;;;11.80;2.67;;;;;;;5.49;96.85;98057.91;5087503;28;20030;-68
2024/03/29 03:15:24;;;;;;;1.17;1.15;;;;;;;5.42;96.85;98058.06;5087308;28;20021;-68
2024/03/29 03:17:50;;;;;;;5.10;1.27;;;;;;;5.41;96.78;98061.53;5085921;28;20086;-69
2024/03/29 03:20:16;;;;;;;1.38;1.27;;;;;;;5.38;96.67;98068.47;5087231;28;20025;-68
2024/03/29 03:22:41;;;;;;;13.55;2.83;;;;;;;5.30;97.02;98063.53;5086790;28;20025;-69
2024/03/29 03:25:07;;;;;;;1.15;1.10;;;;;;;5.27;97.30;98073.88;5087086;28;20586;-67
2024/03/29 03:27:32;;;;;;;0.73;0.73;;;;;;;5.30;97.25;98074.63;5085500;28;20031;-69
2024/03/29 03:29:57;;;;;;;2.67;0.90;;;;;;;5.29;96.96;98072.09;5087375;28;20086;-69
2024/03/29 03:32:23;;;;;;;11.60;1.42;;;;;;;5.23;96.95;98074.81;5087005;28;20023;-68
2024/03/29 03:34:48;;;;;;;21.23;3.22;;;;;;;5.14;97.15;98066.47;5087118;28;20123;-68
2024/03/29 03:37:13;;;;;;;6.72;3.00;;;;;;;5.18;97.46;98077.50;5086865;28;20021;-68
2024/03/29 03:39:39;;;;;;;0.75;0.75;;;;;;;5.18;97.54;98083.50;5085443;28;20029;-68
2024/03/29 03:42:04;;;;;;;1.25;1.25;;;;;;;5.21;97.61;98080.00;5086900;28;20111;-69
2024/03/29 03:44:30;;;;;;;1.52;1.42;;;;;;;5.19;97.40;98087.75;5087065;28;20027;-68
2024/03/29 03:46:55;;;;;;;12.80;1.85;;;;;;;5.19;97.53;98087.75;5086634;28;20020;-68
2024/03/29 03:49:21;;;;;;;0.70;0.70;;;;;;;5.24;97.61;98089.41;5086854;28;20083;-68
2024/03/29 03:51:46;;;;;;;1.73;1.20;;;;;;;5.15;97.66;98078.44;5086275;28;20052;-69
2024/03/29 03:54:11;;;;;;;10.32;1.55;;;;;;;5.28;97.63;98093.56;5085229;28;20506;-69
2024/03/29 03:56:37;;;;;;;0.47;0.47;;;;;;;5.23;97.67;98091.13;5084869;28;20031;-68
2024/03/29 03:59:02;;;;;;;4.88;1.40;;;;;;;5.14;97.33;98074.19;5086629;28;20484;-68
2024/03/29 04:01:27;;;;;;;0.73;0.73;;;;;;;5.32;97.52;98103.75;5085910;28;20035;-68
2024/03/29 04:03:52;;;;;;;5.88;1.45;;;;;;;5.27;97.67;98102.19;5086058;28;20032;-68
2024/03/29 04:06:18;;;;;;;1.25;0.68;;;;;;;5.34;97.60;98106.28;5086045;28;20468;-68
2024/03/29 04:08:47;;;;;;;0.75;0.75;;;;;;;5.40;97.69;98102.75;5086406;28;20078;-69
2024/03/29 04:11:12;;;;;;;0.80;0.80;;;;;;;5.48;97.56;98103.38;5084734;28;20029;-68
2024/03/29 04:13:38;;;;;;;2.35;0.93;;;;;;;5.53;97.47;98108.41;5086066;28;20025;-68
2024/03/29 04:16:05;;;;;;;2.60;1.55;;;;;;;5.53;97.65;98111.84;5084748;28;20025;-68
2024/03/29 04:18:31;;;;;;;1.27;1.17;;;;;;;5.63;97.51;98117.59;5086130;28;20024;-68
2024/03/29 04:21:01;;;;;;;1.50;0.60;;;;;;;5.67;97.83;98118.38;5085891;28;20059;-67
2024/03/29 04:23:26;;;;;;;0.90;0.90;;;;;;;5.71;97.65;98117.41;5086060;28;20031;-68
2024/03/29 04:25:55;;;;;;;0.50;0.50;;;;;;;5.79;97.52;98118.06;5085747;28;20395;-68
2024/03/29 04:28:21;;;;;;;1.27;1.17;;;;;;;5.81;97.41;98120.59;5084804;28;20028;-69
2024/03/29 04:31:01;;;;;;;0.88;0.88;;;;;;;5.85;97.08;98111.06;5085864;28;20027;-69
2024/03/29 04:33:26;;;;;;;0.70;0.70;;;;;;;5.87;97.34;98112.72;5085857;28;20029;-70
2024/03/29 04:36:03;;;;;;;1.00;0.75;;;;;;;5.92;96.99;98121.16;5085650;28;20031;-69
2024/03/29 04:38:30;;;;;;;7.57;2.47;;;;;;;5.97;96.69;98115.88;5085906;28;20040;-68
2024/03/29 04:40:57;;;;;;;0.95;0.80;;;;;;;6.02;96.84;98121.75;5085381;28;20029;-69
2024/03/29 04:43:27;;;;;;;12.38;1.48;;;;;;;6.03;96.35;98130.31;5085686;28;20023;-68
2024/03/29 04:46:21;;;;;;;11.82;1.27;;;;;;;6.12;96.29;98130.09;5085703;28;20020;-69
2024/03/29 04:48:47;;;;;;;0.98;0.85;;;;;;;6.16;96.14;98128.28;5072016;28;20028;-69
2024/03/29 04:51:13;;;;;;;16.17;1.58;;;;;;;6.19;96.01;98133.38;5085611;28;20036;-69
2024/03/29 04:53:39;;;;;;;0.50;0.50;;;;;;;6.22;96.19;98135.84;5085387;28;20013;-69
2024/03/29 04:56:05;;;;;;;0.40;0.40;;;;;;;6.19;95.99;98136.81;5085246;28;20017;-69
2024/03/29 04:58:31;;;;;;;1.63;0.98;;;;;;;6.24;95.91;98143.53;5085326;28;20055;-69
2024/03/29 05:00:56;;;;;;;1.13;0.85;;;;;;;6.28;95.93;98143.41;5085331;28;20021;-68
2024/03/29 05:03:22;;;;;;;1.02;0.93;;;;;;;6.24;95.79;98143.53;5085200;28;20088;-70
2024/03/29 05:05:49;;;;;;;4.07;0.98;;;;;;;6.29;95.87;98150.25;5083684;28;20070;-69
2024/03/29 05:08:15;;;;;;;8.63;1.45;;;;;;;6.31;95.62;98145.09;5084796;28;20052;-69
2024/03/29 05:10:40;;;;;;;1.98;1.83;;;;;;;6.35;95.62;98143.25;5084846;28;20024;-68
2024/03/29 05:13:05;;;;;;;3.13;1.38;;;;;;;6.37;95.76;98152.66;5085324;28;20024;-69
2024/03/29 05:15:31;;;;;;;5.68;1.02;;;;;;;6.37;95.54;98159.53;5084581;28;20024;-69
2024/03/29 05:17:57;;;;;;;1.00;1.00;;;;;;;6.34;95.40;98154.44;5084945;28;20012;-69
2024/03/29 05:20:22;;;;;;;2.63;1.60;;;;;;;6.34;95.49;98159.59;5085094;28;20032;-68
2024/03/29 05:22:47;;;;;;;2.80;1.95;;;;;;;6.39;95.47;98156.00;5084926;28;20048;-68
2024/03/29 05:25:13;;;;;;;8.40;1.33;;;;;;;6.44;95.47;98161.03;5084908;28;20089;-66
2024/03/29 05:27:38;;;;;;;2.08;1.65;;;;;;;6.44;95.35;98156.72;5083376;28;20046;-69
2024/03/29 05:30:04;;;;;;;5.70;1.67;;;;;;;6.42;95.65;98161.06;5085070;28;20051;-68
2024/03/29 05:32:30;;;;;;;3.13;1.05;;;;;;;6.46;95.69;98156.69;5084840;28;20024;-68
2024/03/29 05:34:56;;;;;;;0.93;0.80;;;;;;;6.47;95.66;98163.53;5085056;28;20036;-68
2024/03/29 05:37:24;;;;;;;6.90;2.10;;;;;;;6.45;95.67;98173.03;5084869;28;20024;-67
2024/03/29 05:39:58;;;;;;;4.50;1.65;;;;;;;6.51;95.61;98177.19;5084835;28;20047;-69
2024/03/29 05:42:24;;;;;;;12.98;2.33;;;;;;;6.48;95.38;98162.66;5084719;28;20035;-67
2024/03/29 05:44:49;;;;;;;4.43;1.00;;;;;;;6.54;95.65;98156.47;5084973;28;20024;-68
2024/03/29 05:47:15;;;;;;;1.55;1.45;;;;;;;6.55;95.29;98166.72;5084666;28;20033;-67
2024/03/29 05:49:40;;;;;;;4.20;2.10;;;;;;;6.56;95.46;98175.31;5085135;28;20028;-68
2024/03/29 05:52:05;;;;;;;5.22;1.98;;;;;;;6.61;95.79;98181.19;5084756;28;20040;-68
2024/03/29 05:54:31;;;;;;;7.90;2.08;;;;;;;6.74;96.21;98183.44;5084876;28;20024;-68
2024/03/29 05:56:56;;;;;;;1.90;1.25;;;;;;;6.89;96.44;98182.13;5084488;28;20024;-68
2024/03/29 05:59:21;;;;;;;7.53;1.55;;;;;;;7.01;96.19;98184.34;5084790;28;20024;-68
2024/03/29 06:01:47;;;;;;;5.30;2.45;;;;;;;7.12;96.21;98188.34;5083127;28;20024;-68
2024/03/29 06:04:19;;;;;;;7.32;2.88;;;;;;;7.13;96.06;98183.13;5084668;28;20029;-67
2024/03/29 06:06:44;;;;;;;1.95;1.67;;;;;;;7.11;95.68;98178.94;5084550;28;20376;-67
2024/03/29 06:09:10;;;;;;;8.18;3.63;;;;;;;7.06;95.59;98184.22;5084655;28;20053;-68
2024/03/29 06:11:35;;;;;;;3.55;1.48;;;;;;;7.09;95.39;98178.13;5084539;28;20074;-68
2024/03/29 06:19:12;;;;;;;2.70;2.13;;;;;;;7.21;95.38;98198.38;5077131;28;20032;-68
2024/03/29 06:21:38;;;;;;;5.72;2.15;;;;;;;7.36;95.05;98191.91;5084308;28;20025;-68
2024/03/29 06:24:12;;;;;;;5.15;2.42;;;;;;;7.35;94.85;98190.22;5084611;28;20029;-69
2024/03/29 06:26:38;;;;;;;3.25;2.42;;;;;;;7.39;94.53;98196.13;5085910;28;20088;-68
2024/03/29 06:29:03;;;;;;;10.07;3.00;;;;;;;7.40;94.71;98197.81;5088202;28;20089;-68
2024/03/29 06:31:29;;;;;;;3.53;2.72;;;;;;;7.36;94.45;98189.34;5088177;28;20020;-67
2024/03/29 06:33:55;;;;;;;7.18;5.07;;;;;;;7.42;94.91;98196.91;5088171;28;20020;-67
2024/03/29 06:36:20;;;;;;;8.07;2.92;;;;;;;7.47;95.22;98194.16;5087953;28;20020;-68
2024/03/29 06:38:46;;;;;;;4.13;3.28;;;;;;;7.57;94.97;98197.31;5086874;28;20016;-68
2024/03/29 06:41:12;;;;;;;13.75;3.65;;;;;;;7.62;94.74;98195.41;5087944;28;20028;-68
2024/03/29 06:43:37;;;;;;;2.85;2.58;;;;;;;7.67;95.48;98196.09;5087899;28;20501;-68
2024/03/29 06:46:03;;;;;;;6.70;4.18;;;;;;;7.77;94.69;98199.25;5087846;28;20092;-68
2024/03/29 06:48:31;;;;;;;7.60;3.58;;;;;;;7.87;95.12;98204.09;5087758;28;20059;-68
2024/03/29 06:50:57;;;;;;;5.30;3.88;;;;;;;7.93;94.57;98204.75;5086651;28;20050;-67
2024/03/29 06:53:22;;;;;;;2.83;1.27;;;;;;;8.01;94.55;98204.50;5086382;28;20025;-68
2024/03/29 06:55:49;;;;;;;8.70;5.55;;;;;;;8.06;92.34;98209.50;5087654;28;20032;-67
2024/03/29 06:58:14;;;;;;;7.47;4.60;;;;;;;8.03;92.87;98204.44;5087666;28;20491;-69
2024/03/29 07:00:40;;;;;;;8.23;4.88;;;;;;;8.10;92.40;98218.84;5086380;28;20036;-68
2024/03/29 07:03:05;;;;;;;8.05;5.50;;;;;;;8.15;91.72;98222.13;5087664;28;20021;-68
2024/03/29 07:05:30;;;;;;;5.90;4.00;;;;;;;8.04;90.71;98234.53;5087739;28;20035;-68
2024/03/29 07:07:56;;;;;;;9.65;5.45;;;;;;;7.96;89.15;98236.53;5087353;28;20055;-69
2024/03/29 07:10:21;;;;;;;5.45;3.75;;;;;;;7.94;89.28;98234.84;5085891;28;20053;-68
2024/03/29 07:12:46;;;;;;;5.95;4.47;;;;;;;7.96;89.42;98245.13;5086349;28;20067;-69
2024/03/29 07:15:12;;;;;;;6.85;3.03;;;;;;;7.92;88.85;98246.97;5087371;28;20016;-69
2024/03/29 07:17:38;;;;;;;10.32;5.60;;;;;;;7.88;88.49;98255.72;5087492;28;20041;-70
2024/03/29 07:20:05;;;;;;;12.15;7.28;;;;;;;7.88;88.04;98260.88;5087139;28;20050;-70
2024/03/29 07:22:30;;;;;;;9.13;5.28;;;;;;;7.83;88.51;98243.84;5085861;28;20407;-69
2024/03/29 07:24:55;;;;;;;5.82;4.55;;;;;;;7.84;88.01;98263.63;5087424;28;20029;-69
2024/03/29 07:27:21;;;;;;;14.13;4.95;;;;;;;7.79;87.75;98256.88;5087073;28;20429;-69
2024/03/29 07:29:46;;;;;;;9.27;5.65;;;;;;;7.81;87.99;98267.16;5087297;28;20021;-68
2024/03/29 07:32:11;;;;;;;9.13;5.22;;;;;;;7.80;87.93;98274.06;5085802;28;20039;-68
2024/03/29 07:34:39;;;;;;;10.18;6.68;;;;;;;7.79;88.15;98269.78;5086005;28;20536;-68
2024/03/29 07:37:04;;;;;;;10.68;5.18;;;;;;;7.87;88.81;98264.38;5084908;28;20400;-69
2024/03/29 07:39:30;;;;;;;11.18;4.65;;;;;;;7.91;88.57;98268.53;5086022;28;20467;-70
2024/03/29 07:41:55;;;;;;;8.45;4.55;;;;;;;7.97;88.10;98279.59;5086842;28;20032;-69
2024/03/29 07:44:21;;;;;;;7.47;4.47;;;;;;;7.98;87.40;98286.44;5087031;28;20059;-69
2024/03/29 07:46:47;;;;;;;6.45;4.57;;;;;;;8.04;87.96;98281.91;5085597;28;20055;-69
2024/03/29 07:49:14;;;;;;;7.53;5.35;;;;;;;8.16;87.43;98292.75;5086901;28;20024;-70
2024/03/29 07:51:39;;;;;;;6.45;5.22;;;;;;;8.28;87.24;98283.72;5086713;28;20031;-68
2024/03/29 07:54:05;;;;;;;12.60;5.60;;;;;;;8.29;86.68;98288.03;5086751;28;20025;-69
2024/03/29 07:56:31;;;;;;;11.07;6.10;;;;;;;8.37;86.75;98298.13;5086561;28;20017;-69
2024/03/29 07:58:56;;;;;;;3.83;3.47;;;;;;;8.36;85.80;98299.00;5085715;28;20078;-69
2024/03/29 08:01:22;;;;;;;6.57;4.68;;;;;;;8.33;83.73;98301.69;5086581;28;20024;-69
2024/03/29 08:03:51;;;;;;;4.07;3.13;;;;;;;8.37;84.00;98311.03;5086595;28;20024;-68
2024/03/29 08:06:18;;;;;;;11.23;5.30;;;;;;;8.37;81.85;98314.44;5086375;28;20028;-68
2024/03/29 08:08:44;;;;;;;4.85;3.83;;;;;;;8.37;82.30;98309.28;5086279;28;20130;-66
2024/03/29 08:11:10;;;;;;;9.95;5.80;;;;;;;8.39;83.15;98307.50;5086187;28;20025;-66
2024/03/29 08:13:35;;;;;;;8.93;5.35;;;;;;;8.46;83.81;98318.50;5086136;28;20099;-66
2024/03/29 08:16:01;;;;;;;7.35;5.32;;;;;;;8.63;83.46;98317.09;5086103;28;20427;-66
2024/03/29 08:18:28;;;;;;;7.55;4.05;;;;;;;8.74;82.37;98316.75;5086003;28;20166;-67
2024/03/29 08:20:58;;;;;;;5.78;3.65;;;;;;;8.83;82.55;98303.47;5086299;28;20384;-66
2024/03/29 08:23:24;;;;;;;7.00;4.28;;;;;;;8.81;81.72;98318.22;5086178;28;20024;-67
2024/03/29 08:25:51;;;;;;;7.18;4.53;;;;;;;8.75;82.24;98310.66;5085746;28;20066;-66
2024/03/29 08:28:20;;;;;;;7.35;5.50;;;;;;;8.83;81.92;98326.78;5084531;28;20104;-67
2024/03/29 08:30:45;;;;;;;11.93;4.85;;;;;;;8.84;81.52;98318.09;5086114;28;20202;-66
2024/03/29 08:33:10;;;;;;;4.50;3.65;;;;;;;8.93;81.22;98322.09;5085619;28;20033;-67
2024/03/29 08:35:36;;;;;;;10.23;4.47;;;;;;;9.12;81.55;98330.03;5084486;28;20026;-67
2024/03/29 08:38:02;;;;;;;6.85;4.10;;;;;;;9.48;81.73;98339.13;5084586;28;20017;-67
2024/03/29 08:40:34;;;;;;;12.73;4.68;;;;;;;9.89;81.16;98335.84;5085650;28;20050;-67
2024/03/29 08:42:59;;;;;;;4.15;3.47;;;;;;;10.33;80.38;98341.94;5085955;28;20028;-67
2024/03/29 08:45:24;;;;;;;5.57;3.92;;;;;;;10.91;79.41;98340.41;5085640;28;20029;-68
2024/03/29 08:47:50;;;;;;;7.18;4.80;;;;;;;11.07;77.57;98339.72;5085628;28;20046;-67
2024/03/29 08:50:15;;;;;;;9.27;4.85;;;;;;;11.21;77.47;98339.16;5084597;28;20426;-67
2024/03/29 08:52:41;;;;;;;11.70;4.30;;;;;;;11.18;73.90;98352.28;5085294;28;20020;-69
2024/03/29 08:55:07;;;;;;;5.30;4.22;;;;;;;11.11;74.88;98343.91;5085483;28;20024;-68
2024/03/29 08:57:33;;;;;;;5.85;3.15;;;;;;;11.05;73.18;98362.34;5085242;28;20013;-67
2024/03/29 08:59:58;;;;;;;9.93;3.47;;;;;;;10.94;73.10;98368.00;5085645;28;20054;-67
2024/03/29 09:02:24;;;;;;;5.85;3.50;;;;;;;10.78;71.95;98344.44;5084809;28;20134;-62
2024/03/29 09:04:49;;;;;;;6.30;2.55;;;;;;;10.86;72.75;98370.09;5083715;28;20357;-70
2024/03/29 09:07:15;;;;;;;2.40;1.88;;;;;;;10.76;71.77;98367.03;5085017;28;20093;-69
2024/03/29 09:09:41;;;;;;;5.57;2.35;;;;;;;10.60;72.45;98364.22;5085442;28;20024;-68
2024/03/29 09:12:10;;;;;;;15.70;2.83;;;;;;;10.53;71.44;98376.59;5085025;28;20020;-70
2024/03/29 09:14:36;;;;;;;5.25;3.40;;;;;;;10.45;71.46;98373.47;5085194;28;20039;-67
2024/03/29 09:17:04;;;;;;;6.60;2.50;;;;;;;10.28;71.30;98383.59;5083634;28;20044;-66
2024/03/29 09:19:31;;;;;;;10.30;2.80;;;;;;;10.31;71.26;98392.16;5085136;28;20025;-69
2024/03/29 09:21:56;;;;;;;5.00;2.15;;;;;;;10.22;72.08;98372.63;5085097;28;20426;-68
2024/03/29 09:24:22;;;;;;;4.47;3.45;;;;;;;10.18;72.33;98382.28;5084802;28;20072;-68
2024/03/29 09:26:50;;;;;;;7.78;2.58;;;;;;;10.16;72.59;98382.34;5084617;28;20055;-70
2024/03/29 09:29:17;;;;;;;3.13;2.22;;;;;;;10.12;73.20;98378.19;5085004;28;20024;-68
2024/03/29 09:31:43;;;;;;;12.05;2.60;;;;;;;10.12;73.06;98382.50;5084990;28;20016;-69
2024/03/29 09:34:09;;;;;;;4.32;2.95;;;;;;;10.07;71.97;98384.44;5067035;28;20032;-69
2024/03/29 09:36:34;;;;;;;4.90;2.60;;;;;;;10.12;72.16;98388.56;5084787;28;20496;-67
2024/03/29 09:38:59;;;;;;;2.60;2.40;;;;;;;10.19;72.44;98390.91;5084805;28;20024;-69
2024/03/29 09:41:26;;;;;;;7.22;3.10;;;;;;;10.17;71.77;98388.38;5084868;28;20032;-68
2024/03/29 09:43:54;;;;;;;3.03;2.33;;;;;;;10.20;70.79;98387.41;5084803;28;20032;-68
2024/03/29 09:46:21;;;;;;;2.70;1.80;;;;;;;10.30;72.04;98380.94;5084715;28;20024;-68
2024/03/29 09:48:48;;;;;;;5.28;2.50;;;;;;;10.41;71.74;98389.13;5085001;28;20052;-68
2024/03/29 09:51:14;;;;;;;1.90;1.48;;;;;;;10.38;71.72;98385.84;5084808;28;20033;-69
2024/03/29 09:53:41;;;;;;;12.27;1.75;;;;;;;10.32;71.24;98392.09;5084901;28;20043;-69
2024/03/29 09:56:07;;;;;;;6.53;2.53;;;;;;;10.34;70.78;98400.66;5083510;28;20028;-68
2024/03/29 09:58:34;;;;;;;3.70;1.80;;;;;;;10.37;70.90;98395.34;5084706;28;20024;-68
2024/03/29 10:01:02;;;;;;;8.07;1.95;;;;;;;10.37;70.21;98407.47;5085396;28;20021;-69
2024/03/29 10:03:29;;;;;;;5.78;2.65;;;;;;;10.57;71.71;98400.69;5088592;28;20035;-69
2024/03/29 10:05:59;;;;;;;3.20;2.08;;;;;;;10.94;72.01;98404.34;5088551;28;20029;-68
2024/03/29 10:08:29;;;;;;;4.60;1.88;;;;;;;11.23;72.08;98396.22;5088265;28;20049;-69
2024/03/29 10:10:55;;;;;;;4.00;2.58;;;;;;;11.39;70.96;98405.00;5088271;28;20029;-69
2024/03/29 10:13:21;;;;;;;5.30;2.30;;;;;;;11.52;69.96;98407.06;5088237;28;20027;-72
2024/03/29 10:15:50;;;;;;;5.30;2.58;;;;;;;11.52;70.44;98410.50;5086644;28;20048;-69
2024/03/29 10:18:17;;;;;;;2.47;1.92;;;;;;;11.67;70.77;98412.47;5086773;28;20111;-69
2024/03/29 10:20:43;;;;;;;6.80;2.53;;;;;;;11.76;70.81;98412.91;5088150;28;20533;-69
2024/03/29 10:23:09;;;;;;;4.75;3.15;;;;;;;11.99;70.48;98418.81;5080123;28;20024;-68
2024/03/29 10:25:34;;;;;;;8.85;2.70;;;;;;;11.99;69.25;98431.81;5088150;28;20025;-64
2024/03/29 10:28:02;;;;;;;6.93;2.92;;;;;;;12.11;69.58;98433.03;5087887;28;20353;-69
2024/03/29 10:30:28;;;;;;;9.50;2.28;;;;;;;12.17;68.58;98431.06;5088098;28;20021;-68
2024/03/29 10:32:56;;;;;;;4.50;2.85;;;;;;;11.94;68.13;98435.53;5086627;28;20047;-69
2024/03/29 10:35:22;;;;;;;1.65;1.52;;;;;;;11.72;68.81;98426.97;5087872;28;20031;-70
2024/03/29 10:37:47;;;;;;;8.02;2.85;;;;;;;11.51;68.26;98419.22;5087926;28;20411;-67
2024/03/29 10:40:17;;;;;;;2.45;1.52;;;;;;;11.24;67.62;98432.53;5087864;28;20032;-66
2024/03/29 10:42:44;;;;;;;2.60;1.92;;;;;;;10.93;67.84;98439.00;5086531;28;20029;-68
2024/03/29 10:45:10;;;;;;;4.60;2.40;;;;;;;10.75;69.44;98449.22;5079531;28;20078;-67
2024/03/29 10:47:36;;;;;;;7.55;2.65;;;;;;;10.63;69.58;98437.59;5087707;28;20025;-68
2024/03/29 10:50:05;;;;;;;7.93;2.13;;;;;;;10.50;68.75;98439.00;5087925;28;20028;-67
2024/03/29 10:52:31;;;;;;;6.60;2.50;;;;;;;10.20;68.59;98441.84;5087535;28;20028;-67
2024/03/29 10:54:56;;;;;;;3.42;1.98;;;;;;;9.89;69.27;98431.75;5087786;28;20024;-67
2024/03/29 10:57:26;;;;;;;4.05;2.65;;;;;;;9.88;70.66;98445.63;5087323;28;20161;-67
2024/03/29 11:00:02;;;;;;;5.38;1.73;;;;;;;10.03;70.44;98441.59;5087630;28;20021;-68
2024/03/29 11:02:45;;;;;;;4.55;2.38;;;;;;;10.06;70.64;98444.97;5087448;28;20020;-69
2024/03/29 11:05:14;;;;;;;9.25;2.92;;;;;;;10.16;70.88;98443.72;5087455;28;20361;-69
2024/03/29 11:07:41;;;;;;;3.47;1.50;;;;;;;10.28;71.34;98452.78;5087097;28;20088;-69
2024/03/29 11:10:13;;;;;;;7.22;2.22;;;;;;;10.33;70.95;98458.66;5087336;28;20050;-69
2024/03/29 11:12:53;;;;;;;8.57;2.22;;;;;;;10.28;70.12;98455.38;5086059;28;20031;-69
2024/03/29 11:15:28;;;;;;;2.15;1.55;;;;;;;10.12;69.76;98455.97;5087412;28;20020;-68
2024/03/29 11:17:55;;;;;;;2.85;1.90;;;;;;;9.90;70.08;98467.13;5087312;28;20043;-69
2024/03/29 11:20:27;;;;;;;3.72;1.67;;;;;;;9.78;70.54;98450.28;5087098;28;20029;-68
2024/03/29 11:22:54;;;;;;;2.92;2.08;;;;;;;9.63;70.51;98459.47;5086183;28;20032;-67
2024/03/29 11:25:19;;;;;;;5.82;1.75;;;;;;;9.57;71.59;98454.50;5087001;28;20040;-70
2024/03/29 11:27:47;;;;;;;3.08;1.98;;;;;;;9.64;70.62;98458.56;5086869;28;20025;-70
2024/03/29 11:30:17;;;;;;;5.35;1.98;;;;;;;9.68;70.91;98461.88;5086931;28;20027;-68
2024/03/29 11:32:42;;;;;;;3.60;2.15;;;;;;;9.88;71.16;98458.59;5085421;28;20380;-68
2024/03/29 11:35:15;;;;;;;3.30;2.17;;;;;;;9.95;70.86;98458.34;5086875;28;20021;-68
2024/03/29 11:37:40;;;;;;;9.98;1.95;;;;;;;10.15;71.24;98457.59;5086816;28;20076;-69
2024/03/29 11:40:10;;;;;;;6.88;2.75;;;;;;;10.16;70.20;98457.53;5086995;28;20032;-70
2024/03/29 11:42:53;;;;;;;2.58;1.63;;;;;;;10.10;69.66;98455.19;5086593;28;20017;-69
2024/03/29 11:45:19;;;;;;;1.85;1.40;;;;;;;10.11;70.21;98469.81;5086816;28;20020;-69